Terminal Aerodrome Forecast
Issued by NWS Nashville, TN

Home | Current Version | Previous Version | Text Only | Print | Product List | Glossary On
Versions: 1 2 3 4 5 6 7 8 9 10 11 12 13 14 15 16 17 18 19 20 21 22 23 24 25 26 27 28
956
FTUS44 KOHX 241134
TAFBNA
TAF
KBNA 241134Z 2412/2512 17008KT P6SM SCT040 WS020/21040KT
     FM241500 19013G23KT P6SM SCT040 BKN120
     FM250100 21011G20KT P6SM VCTS OVC050CB
     FM250300 21011G20KT 2SM TSRA OVC025CB
     FM250500 26011G17KT 5SM -SHRA OVC050
     FM250700 28011KT P6SM SKC=

USA.gov is the U.S. government's official web portal to all federal, state and local government web resources and services.